KAVP/AVP METAR and TAF weather

Enter ICAO airport designator
Station Type Date Time Source
KAVP METAR 2019/06/16 11:54 UTC NOAA

KAVP 161154Z 04004KT 10SM BKN100 19/16 A2989 RMK AO2 RAB13E24 SLP115 P0000 60001 70003 T01890161 10189 20172 58005


Station Type Date Time Source
KAVP Decoded METAR 2019/06/16 11:54 UTC NOAA

WILKES-BARRE/SCRANTON INTERNATIONAL , PA, United States (KAVP) 41-20N 75-44W 291M
Jun 16, 2019 - 07:54 AM EDT / 2019.06.16 1154 UTC
Wind: from the NE (040 degrees) at 5 MPH (4 KT):0
Visibility: 10 mile(s):0
Sky conditions: mostly cloudy
Precipitation last hour: A trace
Temperature: 66.0 F (18.9 C)
Dew Point: 61.0 F (16.1 C)
Relative Humidity: 83%
Pressure (altimeter): 29.89 in. Hg (1012 hPa)
Pressure tendency: 0.01 inches (0.5 hPa) lower than three hours ago
ob: KAVP 161154Z 04004KT 10SM BKN100 19/16 A2989 RMK AO2 RAB13E24 SLP115 P0000 60001 70003 T01890161 10189 20172 58005
cycle: 12

Station Type Date Time Source
KAVP TAF 2019/06/16 12:40 UTC NOAA

TAF KAVP 161137Z 1612/1712 25006KT P6SM OVC070
TEMPO 1615/1619 5SM -SHRA OVC025
FM170000 12005KT P6SM BKN035

Example: see airport list